Time;durP1;ratioP1;P1;durP2;ratioP2;P2;SDS_P1;SDS_P2;PMS_P1;PMS_P2;Temp;Humidity;BMP_temperature;BMP_pressure;BME280_temperature;BME280_humidity;BME280_pressure;Samples;Min_cycle;Max_cycle;Signal;HPM_P1;HPM_P2
2022/08/29 00:01:22;;;;;;;6.47;3.80;;;18.00;80.50;;;;;;5032382;28;20546;-52
2022/08/29 00:03:49;;;;;;;5.97;4.10;;;18.00;80.30;;;;;;5032866;28;20479;-52
2022/08/29 00:06:17;;;;;;;5.40;4.63;;;18.00;81.20;;;;;;5024892;28;21853;-52
2022/08/29 00:08:43;;;;;;;4.90;3.93;;;18.00;81.20;;;;;;5032118;28;21040;-52
2022/08/29 00:11:10;;;;;;;5.07;3.50;;;17.90;81.90;;;;;;5024831;28;20484;-52
2022/08/29 00:13:37;;;;;;;4.90;3.73;;;17.80;81.40;;;;;;5027482;28;20851;-52
2022/08/29 00:16:04;;;;;;;7.67;3.73;;;17.70;81.20;;;;;;5015827;28;20484;-51
2022/08/29 00:18:31;;;;;;;5.97;4.20;;;17.80;81.20;;;;;;5024465;28;20479;-52
2022/08/29 00:20:58;;;;;;;11.27;4.33;;;17.80;81.30;;;;;;5024021;28;21029;-52
2022/08/29 00:23:26;;;;;;;11.43;4.33;;;17.80;81.30;;;;;;5020695;28;20495;-51
2022/08/29 00:25:53;;;;;;;10.13;5.40;;;17.70;81.60;;;;;;5026827;28;20471;-52
2022/08/29 00:28:20;;;;;;;6.43;4.37;;;17.60;81.60;;;;;;5027897;28;20570;-52
2022/08/29 00:30:47;;;;;;;5.43;4.77;;;17.60;82.20;;;;;;5021470;28;20478;-52
2022/08/29 00:33:14;;;;;;;10.53;4.50;;;17.50;81.40;;;;;;5029663;28;20588;-52
2022/08/29 00:35:42;;;;;;;4.87;3.60;;;17.50;81.70;;;;;;5022966;28;20488;-53
2022/08/29 00:38:12;;;;;;;7.40;4.50;;;17.40;82.00;;;;;;5015427;28;20500;-52
2022/08/29 00:40:44;;;;;;;8.33;5.67;;;17.40;82.60;;;;;;5017531;28;20493;-53
2022/08/29 00:43:10;;;;;;;5.07;3.57;;;17.40;81.80;;;;;;5027484;28;20563;-53
2022/08/29 00:45:42;;;;;;;5.77;3.77;;;17.40;81.50;;;;;;5024278;28;21001;-52
2022/08/29 00:48:14;;;;;;;4.57;4.10;;;17.40;81.30;;;;;;5027682;28;20476;-52
2022/08/29 00:50:46;;;;;;;7.10;3.33;;;17.40;81.20;;;;;;5030551;28;20581;-53
2022/08/29 00:53:16;;;;;;;5.03;2.90;;;17.30;80.90;;;;;;5028923;28;20475;-52
2022/08/29 00:55:46;;;;;;;4.70;3.73;;;17.50;80.80;;;;;;5024917;28;21448;-52
2022/08/29 00:58:16;;;;;;;5.83;3.47;;;17.50;80.60;;;;;;5026611;28;20492;-51
2022/08/29 01:00:45;;;;;;;12.67;3.80;;;17.60;81.00;;;;;;5026645;28;20482;-52
2022/08/29 01:03:12;;;;;;;12.20;4.10;;;17.50;80.70;;;;;;5029257;28;20494;-51
2022/08/29 01:05:39;;;;;;;8.00;4.17;;;17.50;81.00;;;;;;5030211;28;20498;-52
2022/08/29 01:08:07;;;;;;;4.60;3.63;;;17.50;81.30;;;;;;5030320;28;20491;-52
2022/08/29 01:13:24;;;;;;;9.80;4.67;;;17.50;80.60;;;;;;5016471;28;20490;-52
2022/08/29 01:15:51;;;;;;;8.20;4.43;;;17.50;80.40;;;;;;5014046;28;20472;-52
2022/08/29 01:18:20;;;;;;;6.73;4.57;;;17.50;80.60;;;;;;5015988;28;20488;-52
2022/08/29 01:20:58;;;;;;;5.27;4.27;;;17.50;80.70;;;;;;5015522;28;20921;-51
2022/08/29 01:23:31;;;;;;;16.73;5.40;;;17.50;80.60;;;;;;5015929;28;20476;-52
2022/08/29 01:26:02;;;;;;;9.50;5.13;;;17.50;81.10;;;;;;5031642;28;20487;-51
2022/08/29 01:28:32;;;;;;;8.53;4.40;;;17.60;80.30;;;;;;5025110;28;20579;-51
2022/08/29 01:31:02;;;;;;;5.87;4.57;;;17.60;80.40;;;;;;5023021;28;20904;-51
2022/08/29 01:33:37;;;;;;;4.90;4.40;;;17.60;80.10;;;;;;5015033;28;20489;-52
2022/08/29 01:36:05;;;;;;;4.73;3.83;;;17.60;80.30;;;;;;5016566;28;21005;-52
2022/08/29 01:38:31;;;;;;;6.60;4.30;;;17.60;80.90;;;;;;5023910;28;20477;-52
2022/08/29 01:41:00;;;;;;;6.10;4.70;;;17.60;80.10;;;;;;5023096;28;20480;-52
2022/08/29 01:43:28;;;;;;;3.70;3.23;;;17.60;79.80;;;;;;5018822;28;20492;-52
2022/08/29 01:45:56;;;;;;;7.73;6.33;;;17.60;80.00;;;;;;5017206;28;20481;-52
2022/08/29 01:48:23;;;;;;;11.63;4.47;;;17.60;80.40;;;;;;5012418;28;20468;-52
2022/08/29 01:50:50;;;;;;;5.70;4.37;;;17.50;80.30;;;;;;5033463;28;20992;-52
2022/08/29 01:53:17;;;;;;;8.03;5.40;;;17.50;79.80;;;;;;5023643;28;21822;-52
2022/08/29 01:55:44;;;;;;;3.33;2.97;;;17.50;79.80;;;;;;5036869;28;20491;-52
2022/08/29 01:58:12;;;;;;;3.63;3.33;;;17.50;79.80;;;;;;5033995;28;20490;-52
2022/08/29 02:00:39;;;;;;;4.10;3.03;;;17.50;80.50;;;;;;5032371;28;21060;-52
2022/08/29 02:03:06;;;;;;;16.33;4.40;;;17.60;79.80;;;;;;5032810;28;20484;-52
2022/08/29 02:05:33;;;;;;;4.90;4.33;;;17.60;79.50;;;;;;5019277;28;20503;-52
2022/08/29 02:08:00;;;;;;;5.63;5.00;;;17.60;79.60;;;;;;5035550;28;20475;-52
2022/08/29 02:10:29;;;;;;;6.73;3.20;;;17.50;79.70;;;;;;5024357;28;20496;-52
2022/08/29 02:12:56;;;;;;;7.00;5.27;;;17.50;79.90;;;;;;5018368;28;20964;-52
2022/08/29 02:15:24;;;;;;;5.57;3.90;;;17.50;79.80;;;;;;5006410;28;20479;-52
2022/08/29 02:17:51;;;;;;;6.10;4.40;;;17.50;79.80;;;;;;5037134;28;20479;-52
2022/08/29 02:20:18;;;;;;;4.63;3.60;;;17.50;79.60;;;;;;5028979;28;20491;-52
2022/08/29 02:22:45;;;;;;;7.90;3.93;;;17.50;79.70;;;;;;5036313;28;20484;-51
2022/08/29 02:27:57;;;;;;;8.33;5.83;;;17.40;79.40;;;;;;5004451;28;20526;-51
2022/08/29 02:30:25;;;;;;;6.30;3.57;;;17.40;79.50;;;;;;5028325;28;20554;-52
2022/08/29 02:32:52;;;;;;;6.40;5.13;;;17.40;79.40;;;;;;5026935;28;20489;-52
2022/08/29 02:35:19;;;;;;;4.47;3.13;;;17.40;79.30;;;;;;5016892;28;20804;-52
2022/08/29 02:37:46;;;;;;;9.80;3.50;;;17.40;79.60;;;;;;5025064;28;20935;-52
2022/08/29 02:40:12;;;;;;;4.17;3.47;;;17.30;79.10;;;;;;5014615;28;20476;-51
2022/08/29 02:42:39;;;;;;;6.60;3.87;;;17.40;79.60;;;;;;5023574;28;20492;-52
2022/08/29 02:45:07;;;;;;;8.43;3.70;;;17.40;79.60;;;;;;5012873;28;20985;-52
2022/08/29 02:47:35;;;;;;;5.60;3.40;;;17.40;79.60;;;;;;5023958;28;20945;-51
2022/08/29 02:50:05;;;;;;;8.27;5.50;;;17.20;79.10;;;;;;5031782;28;20916;-51
2022/08/29 02:52:32;;;;;;;9.37;4.37;;;17.30;79.20;;;;;;5034716;28;20483;-51
2022/08/29 02:54:58;;;;;;;7.13;5.03;;;17.30;79.50;;;;;;5018790;28;20477;-51
2022/08/29 02:57:25;;;;;;;7.37;4.40;;;17.30;79.90;;;;;;5007513;28;20526;-51
2022/08/29 02:59:52;;;;;;;6.10;4.00;;;17.30;79.30;;;;;;5029445;28;21004;-51
2022/08/29 03:02:19;;;;;;;6.63;3.70;;;17.30;79.10;;;;;;5015374;28;20476;-52
2022/08/29 03:04:47;;;;;;;7.10;3.63;;;17.20;79.00;;;;;;5029576;28;21193;-51
2022/08/29 03:07:14;;;;;;;6.37;3.47;;;17.20;79.30;;;;;;5027340;28;20478;-51
2022/08/29 03:09:40;;;;;;;4.13;2.87;;;17.10;79.10;;;;;;5035342;28;20487;-52
2022/08/29 03:12:07;;;;;;;7.33;3.73;;;17.10;79.20;;;;;;5021356;28;21234;-51
2022/08/29 03:14:34;;;;;;;6.47;3.10;;;17.10;79.50;;;;;;5013054;28;20479;-51
2022/08/29 03:17:01;;;;;;;6.73;5.00;;;17.10;79.30;;;;;;5033713;28;20484;-51
2022/08/29 03:19:28;;;;;;;6.07;3.90;;;17.20;79.60;;;;;;5034400;28;20596;-51
2022/08/29 03:21:56;;;;;;;7.93;3.80;;;17.10;79.30;;;;;;5028407;28;20486;-52
2022/08/29 03:24:22;;;;;;;9.63;4.50;;;17.10;80.00;;;;;;5033216;28;20487;-51
2022/08/29 03:26:49;;;;;;;6.83;4.73;;;17.10;79.50;;;;;;5026415;28;20481;-51
2022/08/29 03:29:16;;;;;;;9.13;4.37;;;17.10;79.70;;;;;;5020262;28;20496;-51
2022/08/29 03:31:42;;;;;;;6.67;3.63;;;17.10;79.70;;;;;;5036768;28;20519;-51
2022/08/29 03:34:09;;;;;;;5.30;4.20;;;17.00;79.70;;;;;;5021384;28;20487;-51
2022/08/29 03:36:36;;;;;;;7.30;3.10;;;17.10;80.00;;;;;;4998410;28;20475;-51
2022/08/29 03:39:04;;;;;;;9.27;4.43;;;17.10;79.70;;;;;;5028737;28;20495;-51
2022/08/29 03:41:30;;;;;;;5.83;3.30;;;17.10;79.90;;;;;;5030644;28;20576;-51
2022/08/29 03:43:59;;;;;;;9.90;6.27;;;17.10;79.70;;;;;;5026885;28;20494;-51
2022/08/29 03:46:26;;;;;;;8.63;4.20;;;17.10;79.80;;;;;;5023759;28;21009;-51
2022/08/29 03:48:53;;;;;;;8.73;5.87;;;17.00;79.50;;;;;;5022794;28;21222;-50
2022/08/29 03:51:20;;;;;;;15.50;4.20;;;16.90;79.50;;;;;;5033990;28;20488;-51
2022/08/29 03:53:47;;;;;;;8.03;3.70;;;16.90;79.80;;;;;;5027211;28;21099;-51
2022/08/29 03:56:15;;;;;;;8.13;4.30;;;16.90;79.90;;;;;;5026108;28;21012;-51
2022/08/29 03:58:42;;;;;;;8.27;2.70;;;16.80;79.90;;;;;;5021905;28;20496;-51
2022/08/29 04:01:09;;;;;;;6.20;3.43;;;16.70;80.00;;;;;;5034246;28;20575;-51
2022/08/29 04:03:36;;;;;;;3.70;3.07;;;16.70;80.30;;;;;;5030830;28;20484;-51
2022/08/29 04:06:02;;;;;;;4.93;4.43;;;16.60;80.30;;;;;;5030123;28;20789;-51
2022/08/29 04:08:29;;;;;;;11.57;5.27;;;16.60;80.90;;;;;;5032616;28;20516;-51
2022/08/29 04:10:56;;;;;;;8.17;6.03;;;16.70;80.90;;;;;;5023425;28;20499;-51
2022/08/29 04:13:24;;;;;;;7.90;3.80;;;16.60;81.00;;;;;;5028799;28;20523;-51
2022/08/29 04:15:50;;;;;;;9.50;5.90;;;16.60;80.80;;;;;;5030580;28;20997;-51
2022/08/29 04:18:17;;;;;;;8.17;4.07;;;16.60;81.10;;;;;;5014950;28;20476;-51
2022/08/29 04:20:44;;;;;;;11.80;4.17;;;16.60;80.60;;;;;;5016713;28;20918;-51
2022/08/29 04:23:12;;;;;;;8.93;5.63;;;16.70;80.80;;;;;;5021285;28;20482;-51
2022/08/29 04:25:40;;;;;;;6.07;3.60;;;16.70;80.90;;;;;;5013563;28;20483;-51
2022/08/29 04:28:08;;;;;;;4.70;2.90;;;16.60;80.50;;;;;;5021246;28;20510;-52
2022/08/29 04:30:37;;;;;;;7.60;3.70;;;16.60;80.60;;;;;;5016006;28;20492;-51
2022/08/29 04:33:05;;;;;;;7.63;4.97;;;16.60;80.60;;;;;;5018463;28;20472;-51
2022/08/29 04:35:31;;;;;;;9.30;4.13;;;16.50;80.80;;;;;;5015424;28;20488;-51
2022/08/29 04:37:58;;;;;;;6.00;5.00;;;16.60;80.90;;;;;;5023981;28;20487;-51
2022/08/29 04:40:25;;;;;;;6.90;3.93;;;16.60;81.70;;;;;;5021109;28;20480;-51
2022/08/29 04:42:51;;;;;;;7.03;5.43;;;16.60;80.70;;;;;;5023685;28;20472;-51
2022/08/29 04:45:21;;;;;;;4.40;3.17;;;16.50;80.70;;;;;;5032948;28;20479;-51
2022/08/29 04:47:49;;;;;;;14.20;4.60;;;16.50;81.20;;;;;;5029659;28;21349;-51
2022/08/29 04:50:20;;;;;;;8.90;4.17;;;16.50;80.90;;;;;;5033187;28;20472;-51
2022/08/29 04:52:47;;;;;;;4.47;3.30;;;16.50;80.80;;;;;;5025201;28;21018;-51
2022/08/29 04:55:15;;;;;;;6.37;3.10;;;16.50;81.00;;;;;;5020681;28;20491;-51
2022/08/29 04:57:42;;;;;;;4.10;2.97;;;16.50;80.90;;;;;;4977354;28;21133;-51
2022/08/29 05:00:12;;;;;;;7.60;4.20;;;16.40;81.00;;;;;;5014672;28;20595;-51
2022/08/29 05:02:40;;;;;;;10.47;4.13;;;16.50;81.00;;;;;;5027029;28;20485;-51
2022/08/29 05:05:10;;;;;;;4.60;4.10;;;16.50;81.10;;;;;;5019754;28;20746;-51
2022/08/29 05:07:37;;;;;;;6.40;3.03;;;16.50;81.50;;;;;;5019098;28;20484;-51
2022/08/29 05:10:06;;;;;;;9.20;3.33;;;16.50;81.20;;;;;;5010862;28;20495;-51
2022/08/29 05:12:34;;;;;;;7.70;4.33;;;16.50;81.10;;;;;;5020118;28;20496;-51
2022/08/29 05:15:01;;;;;;;10.10;5.40;;;16.50;81.20;;;;;;5018951;28;20495;-51
2022/08/29 05:17:28;;;;;;;6.70;3.63;;;16.60;81.50;;;;;;5019190;28;20958;-51
2022/08/29 05:19:55;;;;;;;7.80;5.27;;;16.60;81.10;;;;;;5024645;28;20479;-51
2022/08/29 05:22:23;;;;;;;7.90;4.00;;;16.70;81.00;;;;;;5032398;28;21017;-51
2022/08/29 05:24:50;;;;;;;9.13;3.87;;;16.70;81.10;;;;;;5018513;28;20575;-51
2022/08/29 05:27:18;;;;;;;8.53;4.60;;;16.70;81.20;;;;;;5024563;28;20503;-51
2022/08/29 05:29:47;;;;;;;4.60;3.93;;;16.70;81.40;;;;;;4997093;28;20480;-51
2022/08/29 05:32:16;;;;;;;8.33;3.40;;;16.70;81.30;;;;;;5020520;28;20464;-51
2022/08/29 05:34:44;;;;;;;6.10;3.80;;;16.70;81.30;;;;;;5026426;28;20508;-51
2022/08/29 05:37:13;;;;;;;6.63;3.63;;;16.80;81.40;;;;;;5025608;28;20484;-50
2022/08/29 05:39:42;;;;;;;9.30;3.20;;;16.80;81.30;;;;;;5020854;28;21004;-50
2022/08/29 05:42:10;;;;;;;3.90;3.40;;;16.80;81.30;;;;;;5026535;28;20483;-51
2022/08/29 05:44:38;;;;;;;10.37;3.80;;;16.90;81.40;;;;;;5031219;28;20483;-50
2022/08/29 05:47:07;;;;;;;7.07;4.47;;;16.90;81.70;;;;;;5023175;28;20507;-50
2022/08/29 05:49:36;;;;;;;8.13;3.90;;;17.00;82.20;;;;;;5018229;28;20488;-50
2022/08/29 05:52:04;;;;;;;7.73;3.50;;;17.00;81.80;;;;;;5018449;28;20634;-50
2022/08/29 05:54:34;;;;;;;10.87;3.73;;;17.10;81.80;;;;;;5024905;28;21257;-50
2022/08/29 05:57:02;;;;;;;6.17;5.43;;;17.10;81.60;;;;;;5028009;28;20474;-50
2022/08/29 05:59:28;;;;;;;7.60;3.10;;;17.20;81.50;;;;;;5028725;28;21209;-50
2022/08/29 06:01:55;;;;;;;6.07;4.60;;;17.30;81.50;;;;;;5035907;28;20484;-50
2022/08/29 06:04:22;;;;;;;4.50;3.90;;;17.40;81.40;;;;;;5023754;28;20490;-50
2022/08/29 06:06:49;;;;;;;7.90;3.87;;;17.50;81.40;;;;;;5017545;28;20476;-50
2022/08/29 06:09:16;;;;;;;10.80;5.30;;;17.60;81.30;;;;;;5023975;28;20619;-50
2022/08/29 06:11:46;;;;;;;6.47;3.67;;;17.70;80.70;;;;;;5034385;28;20487;-50
2022/08/29 06:14:15;;;;;;;8.07;3.37;;;17.80;80.70;;;;;;5022530;28;20532;-50
2022/08/29 06:16:42;;;;;;;3.10;2.73;;;18.00;80.60;;;;;;5027976;28;20479;-50
2022/08/29 06:19:09;;;;;;;8.73;5.53;;;18.20;80.00;;;;;;5018296;28;20483;-50
2022/08/29 06:21:36;;;;;;;9.33;4.00;;;18.30;79.10;;;;;;5027747;28;20492;-50
2022/08/29 06:24:03;;;;;;;5.60;4.60;;;18.40;79.20;;;;;;5035546;28;20486;-51
2022/08/29 06:26:30;;;;;;;5.13;2.73;;;18.60;78.60;;;;;;5036632;28;20479;-50
2022/08/29 06:28:58;;;;;;;9.90;4.97;;;18.80;79.20;;;;;;5036976;28;21049;-50
2022/08/29 06:31:28;;;;;;;5.23;3.67;;;19.80;78.20;;;;;;5042080;28;20483;-50
2022/08/29 06:33:57;;;;;;;5.90;4.03;;;19.70;76.90;;;;;;5039392;28;20578;-50
2022/08/29 06:36:24;;;;;;;3.00;2.57;;;20.00;76.20;;;;;;5045111;28;20487;-50
2022/08/29 06:38:51;;;;;;;7.73;4.87;;;20.20;75.20;;;;;;5042744;28;21048;-51
2022/08/29 06:41:18;;;;;;;6.03;3.20;;;20.30;74.70;;;;;;5043457;28;20484;-50
2022/08/29 06:43:45;;;;;;;5.37;3.07;;;20.30;74.30;;;;;;5037151;28;20497;-50
2022/08/29 06:46:21;;;;;;;6.60;3.07;;;20.80;74.90;;;;;;5044467;28;20616;-49
2022/08/29 06:48:49;;;;;;;5.07;2.50;;;21.50;72.90;;;;;;5011827;28;20624;-51
2022/08/29 06:51:16;;;;;;;7.83;3.17;;;22.00;71.60;;;;;;5037307;28;20994;-50
2022/08/29 06:53:43;;;;;;;2.87;2.00;;;22.00;71.90;;;;;;5039743;28;20474;-51
2022/08/29 06:56:10;;;;;;;3.43;2.50;;;22.50;71.20;;;;;;5043560;28;20482;-50
2022/08/29 06:58:36;;;;;;;6.53;3.53;;;22.90;70.40;;;;;;5039191;28;20490;-50
2022/08/29 07:01:06;;;;;;;3.53;2.30;;;23.10;69.50;;;;;;5046475;28;20479;-50
2022/08/29 07:03:33;;;;;;;5.80;2.37;;;23.50;68.60;;;;;;5041075;28;20582;-50
2022/08/29 07:06:01;;;;;;;6.93;2.77;;;23.60;67.90;;;;;;5044185;28;20479;-51
2022/08/29 07:08:28;;;;;;;4.30;2.90;;;23.70;68.20;;;;;;5042267;28;20863;-50
2022/08/29 07:10:55;;;;;;;5.10;2.60;;;24.00;67.40;;;;;;5040585;28;20470;-51
2022/08/29 07:13:21;;;;;;;7.10;2.90;;;24.10;67.30;;;;;;5040846;28;20483;-50
2022/08/29 07:15:48;;;;;;;5.53;3.10;;;24.10;66.20;;;;;;5038317;28;20490;-50
2022/08/29 07:18:15;;;;;;;4.77;2.33;;;24.10;66.20;;;;;;5040176;28;20486;-51
2022/08/29 07:20:42;;;;;;;8.07;2.40;;;23.90;65.60;;;;;;5038195;28;21192;-51
2022/08/29 07:23:10;;;;;;;4.60;2.90;;;23.90;65.90;;;;;;5034855;28;20862;-51
2022/08/29 07:25:37;;;;;;;4.70;2.60;;;23.70;65.40;;;;;;5044309;28;20480;-50
2022/08/29 07:28:05;;;;;;;5.03;2.70;;;23.60;66.10;;;;;;5038870;28;20490;-51
2022/08/29 07:30:32;;;;;;;3.50;2.27;;;;;;;;;;5041381;28;20482;-51
2022/08/29 07:32:59;;;;;;;4.10;2.77;;;23.60;66.60;;;;;;5043341;28;20479;-51
2022/08/29 07:35:26;;;;;;;5.70;3.00;;;23.60;67.40;;;;;;5036471;28;20479;-50
2022/08/29 07:37:56;;;;;;;4.10;2.70;;;23.60;66.20;;;;;;5043055;28;20928;-50
2022/08/29 07:40:24;;;;;;;3.40;2.40;;;23.70;66.70;;;;;;5046226;28;20479;-50
2022/08/29 07:42:50;;;;;;;4.73;2.33;;;23.80;66.80;;;;;;5037978;28;21111;-50
2022/08/29 07:45:17;;;;;;;5.67;2.67;;;23.80;66.30;;;;;;5036178;28;20475;-50
2022/08/29 07:47:44;;;;;;;4.93;2.00;;;23.90;65.80;;;;;;5038979;28;20957;-50
2022/08/29 07:50:13;;;;;;;5.73;3.13;;;23.90;65.60;;;;;;5039663;28;20475;-50
2022/08/29 07:52:40;;;;;;;5.40;2.47;;;24.00;66.80;;;;;;5042829;28;20735;-51
2022/08/29 07:55:08;;;;;;;8.37;2.93;;;24.20;66.80;;;;;;5037959;28;20497;-51
2022/08/29 07:57:36;;;;;;;5.17;2.20;;;24.20;67.40;;;;;;5038794;28;20475;-51
2022/08/29 08:00:05;;;;;;;3.80;2.50;;;24.40;66.00;;;;;;5041437;28;20475;-52
2022/08/29 08:02:32;;;;;;;3.47;2.03;;;24.70;65.70;;;;;;5044873;28;20726;-50
2022/08/29 08:04:59;;;;;;;5.10;2.73;;;24.80;66.70;;;;;;5035940;28;20490;-50
2022/08/29 08:07:25;;;;;;;5.43;2.87;;;25.10;65.40;;;;;;5043757;28;21358;-50
2022/08/29 08:09:52;;;;;;;6.47;3.10;;;25.20;64.70;;;;;;5040770;28;20487;-50
2022/08/29 08:12:19;;;;;;;4.97;2.30;;;25.20;64.50;;;;;;5030940;28;20479;-50
2022/08/29 08:14:47;;;;;;;3.20;2.37;;;25.40;65.10;;;;;;5038645;28;20479;-50
2022/08/29 08:17:14;;;;;;;6.50;2.93;;;25.40;65.10;;;;;;5041675;28;20479;-49
2022/08/29 08:19:40;;;;;;;4.80;2.13;;;25.70;65.60;;;;;;5027571;28;20489;-49
2022/08/29 08:22:08;;;;;;;3.60;1.83;;;26.10;63.60;;;;;;5028830;28;20479;-50
2022/08/29 08:24:34;;;;;;;3.97;2.97;;;26.00;62.70;;;;;;5037447;28;20631;-49
2022/08/29 08:27:01;;;;;;;5.87;2.60;;;26.00;61.80;;;;;;5040919;28;20471;-50
2022/08/29 08:29:28;;;;;;;5.85;2.67;;;25.90;62.80;;;;;;5043064;28;20478;-49
2022/08/29 08:31:58;;;;;;;4.87;3.47;;;25.80;63.60;;;;;;5037416;28;20248;-51
2022/08/29 08:34:27;;;;;;;3.70;2.40;;;25.60;62.30;;;;;;5036310;28;21015;-50
2022/08/29 08:36:54;;;;;;;3.43;2.40;;;25.60;63.90;;;;;;5039896;28;20520;-49
2022/08/29 08:39:21;;;;;;;5.37;2.50;;;25.60;62.80;;;;;;5042721;28;20859;-49
2022/08/29 08:41:52;;;;;;;3.57;2.23;;;25.70;63.50;;;;;;5041206;28;20834;-48
2022/08/29 08:44:57;;;;;;;4.83;2.97;;;25.80;63.30;;;;;;5037215;28;20479;-49
2022/08/29 08:47:30;;;;;;;9.00;2.53;;;26.10;63.90;;;;;;4936513;28;21111;-50
2022/08/29 08:50:01;;;;;;;8.57;3.10;;;26.60;61.50;;;;;;5023793;28;20483;-50
2022/08/29 08:52:33;;;;;;;5.30;2.37;;;26.70;61.10;;;;;;5016025;28;21055;-49
2022/08/29 08:55:04;;;;;;;5.70;2.60;;;27.00;61.50;;;;;;5033671;28;20482;-50
2022/08/29 08:57:38;;;;;;;4.63;2.50;;;26.90;61.00;;;;;;5013919;28;21335;-50
2022/08/29 09:00:09;;;;;;;4.50;2.70;;;27.10;61.60;;;;;;5040743;28;20603;-50
2022/08/29 09:02:50;;;;;;;4.73;2.37;;;27.30;60.50;;;;;;5040683;28;20466;-50
2022/08/29 09:05:33;;;;;;;5.10;2.30;;;27.50;60.50;;;;;;5037429;28;21001;-51
2022/08/29 09:08:10;;;;;;;3.33;2.63;;;27.50;61.30;;;;;;5042003;28;20463;-51
2022/08/29 09:10:45;;;;;;;4.03;2.77;;;27.60;59.80;;;;;;5028019;28;20478;-50
2022/08/29 09:13:26;;;;;;;5.30;3.33;;;27.60;60.60;;;;;;5039741;28;20601;-49
2022/08/29 09:15:56;;;;;;;8.23;2.70;;;27.70;60.40;;;;;;5042427;28;20716;-50
2022/08/29 09:18:32;;;;;;;2.87;2.30;;;27.70;60.10;;;;;;5039849;28;20530;-49
2022/08/29 09:20:59;;;;;;;7.50;3.10;;;27.60;60.00;;;;;;5040753;28;20457;-49
2022/08/29 09:23:31;;;;;;;8.00;2.70;;;27.60;60.50;;;;;;5034265;28;20531;-50
2022/08/29 09:25:57;;;;;;;5.53;2.80;;;27.50;60.10;;;;;;5032309;28;20553;-50
2022/08/29 09:28:25;;;;;;;3.73;2.00;;;27.60;60.00;;;;;;5038782;28;20502;-50
2022/08/29 09:31:14;;;;;;;6.40;2.87;;;27.70;60.00;;;;;;5038893;28;20482;-50
2022/08/29 09:33:45;;;;;;;11.83;3.50;;;27.90;59.90;;;;;;5034485;28;20481;-50
2022/08/29 09:36:13;;;;;;;5.10;2.60;;;27.90;59.60;;;;;;5040185;28;20490;-50
2022/08/29 09:38:40;;;;;;;4.67;3.00;;;28.20;59.60;;;;;;5041579;28;20491;-50
2022/08/29 09:41:09;;;;;;;5.73;2.73;;;28.40;59.50;;;;;;5043493;28;20487;-50
2022/08/29 09:43:47;;;;;;;5.80;3.27;;;28.60;58.90;;;;;;5034277;28;20503;-50
2022/08/29 09:46:19;;;;;;;4.73;2.50;;;28.80;59.30;;;;;;5043123;28;20482;-50
2022/08/29 09:48:50;;;;;;;6.37;3.30;;;28.90;58.60;;;;;;5039416;28;20475;-50
2022/08/29 09:51:24;;;;;;;4.60;2.80;;;28.90;58.90;;;;;;5041677;28;20452;-48
2022/08/29 09:53:52;;;;;;;6.23;2.83;;;29.20;59.30;;;;;;5038052;28;20481;-50
2022/08/29 09:56:22;;;;;;;5.53;2.70;;;29.30;58.50;;;;;;5040297;28;21007;-50
2022/08/29 09:58:58;;;;;;;8.13;2.80;;;29.50;57.70;;;;;;5041164;28;20489;-50
2022/08/29 10:01:25;;;;;;;10.93;3.20;;;29.70;57.90;;;;;;5042039;28;20485;-50
2022/08/29 10:03:57;;;;;;;3.60;2.97;;;29.80;57.30;;;;;;5037126;28;21367;-50
2022/08/29 10:06:26;;;;;;;2.67;2.10;;;29.90;57.30;;;;;;5044368;28;21054;-50
2022/08/29 10:09:00;;;;;;;5.57;2.40;;;29.90;57.40;;;;;;5040979;28;20479;-50
2022/08/29 10:11:31;;;;;;;5.80;2.57;;;29.80;56.90;;;;;;5042798;28;20811;-50
2022/08/29 10:14:02;;;;;;;2.50;2.03;;;29.80;57.40;;;;;;5028713;28;20462;-50
2022/08/29 10:16:38;;;;;;;6.83;2.60;;;29.70;56.90;;;;;;5044357;28;20662;-50
2022/08/29 10:19:12;;;;;;;8.10;2.70;;;29.80;57.30;;;;;;5016991;28;20474;-50
2022/08/29 10:21:46;;;;;;;5.03;2.77;;;29.90;57.50;;;;;;5033622;28;20478;-50
2022/08/29 10:24:33;;;;;;;4.10;2.27;;;30.00;57.50;;;;;;5043267;28;20478;-50
2022/08/29 10:27:07;;;;;;;4.87;3.17;;;30.00;57.40;;;;;;5036493;28;20858;-49
2022/08/29 10:29:51;;;;;;;6.87;4.00;;;30.10;57.30;;;;;;5020472;28;20445;-49
2022/08/29 10:32:29;;;;;;;3.40;2.53;;;30.10;56.80;;;;;;5031011;28;20685;-49
2022/08/29 10:35:03;;;;;;;3.87;3.20;;;30.10;57.50;;;;;;5039241;28;20473;-50
2022/08/29 10:37:44;;;;;;;6.43;3.67;;;30.60;57.40;;;;;;5023903;28;20482;-50
2022/08/29 10:40:17;;;;;;;4.40;3.50;;;30.60;57.90;;;;;;5035366;28;20446;-48
2022/08/29 10:42:46;;;;;;;3.40;2.80;;;30.80;56.10;;;;;;5042008;28;20992;-55
2022/08/29 10:45:17;;;;;;;3.60;2.63;;;31.00;57.20;;;;;;5038009;28;20983;-49
2022/08/29 10:47:52;;;;;;;4.10;3.50;;;31.10;55.30;;;;;;5039398;28;20673;-49
2022/08/29 10:50:31;;;;;;;5.50;2.80;;;30.90;55.00;;;;;;5041659;28;20514;-49
2022/08/29 10:53:03;;;;;;;3.83;2.90;;;30.90;55.70;;;;;;5038979;28;20482;-49
2022/08/29 10:55:44;;;;;;;7.80;3.50;;;31.00;55.70;;;;;;5042554;28;20450;-49
2022/08/29 10:58:23;;;;;;;6.57;3.70;;;31.20;56.90;;;;;;5038021;28;20450;-50
2022/08/29 11:00:55;;;;;;;5.50;3.70;;;31.20;54.70;;;;;;5043015;28;20707;-48
2022/08/29 11:03:30;;;;;;;5.00;3.53;;;31.20;54.70;;;;;;5039592;28;21388;-50
2022/08/29 11:06:07;;;;;;;4.40;3.43;;;31.30;55.80;;;;;;5042149;28;20494;-49
2022/08/29 11:08:37;;;;;;;5.17;3.30;;;31.10;54.50;;;;;;5023216;28;20483;-50
2022/08/29 11:11:04;;;;;;;6.00;3.73;;;31.20;55.80;;;;;;5036391;28;20445;-50
2022/08/29 11:13:34;;;;;;;3.70;3.30;;;31.20;54.40;;;;;;5038019;28;21152;-51
2022/08/29 11:16:09;;;;;;;6.87;3.17;;;31.20;53.90;;;;;;5042992;28;20477;-50
2022/08/29 11:18:42;;;;;;;4.77;3.37;;;30.90;54.40;;;;;;5039389;28;20474;-51
2022/08/29 11:21:19;;;;;;;5.33;4.10;;;31.10;56.20;;;;;;5014961;28;20445;-50
2022/08/29 11:23:47;;;;;;;4.37;2.60;;;31.10;56.20;;;;;;5023728;28;20681;-50
2022/08/29 11:26:35;;;;;;;6.63;4.00;;;31.20;55.80;;;;;;5039886;28;20898;-49
2022/08/29 11:29:13;;;;;;;5.00;3.37;;;31.30;55.50;;;;;;5021526;28;20470;-49
2022/08/29 11:31:50;;;;;;;6.80;4.00;;;31.70;55.50;;;;;;5037402;28;20455;-49
2022/08/29 11:34:29;;;;;;;4.60;3.30;;;31.90;55.60;;;;;;5029256;28;21300;-50
2022/08/29 11:37:19;;;;;;;5.33;4.23;;;31.90;54.20;;;;;;5042152;28;20709;-49
2022/08/29 11:39:55;;;;;;;8.23;4.37;;;31.90;54.10;;;;;;5034572;28;20466;-50
2022/08/29 11:42:28;;;;;;;4.80;3.90;;;31.90;53.70;;;;;;5036500;28;20536;-49
2022/08/29 11:44:57;;;;;;;6.03;3.83;;;31.90;53.80;;;;;;5038999;28;20533;-50
2022/08/29 11:47:38;;;;;;;4.30;3.40;;;32.00;53.90;;;;;;5036870;28;20803;-49
2022/08/29 11:50:19;;;;;;;5.57;3.67;;;31.90;53.30;;;;;;5039673;28;20452;-49
2022/08/29 11:52:53;;;;;;;3.53;3.10;;;32.00;54.60;;;;;;5033819;28;20653;-50
2022/08/29 11:55:30;;;;;;;5.57;4.47;;;32.10;53.80;;;;;;5033925;28;21296;-52
2022/08/29 11:58:06;;;;;;;5.30;4.00;;;32.20;53.60;;;;;;5032242;28;20552;-50
2022/08/29 12:00:43;;;;;;;5.80;3.57;;;32.30;54.00;;;;;;5032410;28;20531;-50
2022/08/29 12:03:46;;;;;;;5.80;4.10;;;32.30;52.40;;;;;;5033986;28;21064;-49
2022/08/29 12:06:33;;;;;;;13.03;5.57;;;32.30;53.60;;;;;;5043660;28;20485;-50
2022/08/29 12:09:17;;;;;;;5.17;3.30;;;32.50;54.00;;;;;;5038440;28;20545;-49
2022/08/29 12:12:16;;;;;;;3.50;3.20;;;31.90;53.30;;;;;;5042469;28;20564;-52
2022/08/29 12:14:45;;;;;;;5.20;3.60;;;31.80;53.00;;;;;;4913642;28;20461;-51
2022/08/29 12:17:42;;;;;;;4.70;3.80;;;31.50;53.30;;;;;;5019020;28;20453;-49
2022/08/29 12:20:40;;;;;;;3.43;3.13;;;31.80;53.40;;;;;;5029575;28;20938;-50
2022/08/29 12:23:19;;;;;;;4.57;4.17;;;31.80;52.40;;;;;;5031190;28;20459;-50
2022/08/29 12:25:50;;;;;;;6.57;3.53;;;31.90;54.00;;;;;;5017821;28;20439;-51
2022/08/29 12:28:36;;;;;;;4.57;3.80;;;31.90;54.50;;;;;;5035839;28;20843;-50
2022/08/29 12:31:09;;;;;;;8.20;4.40;;;32.10;53.30;;;;;;5031239;28;20452;-51
2022/08/29 12:33:45;;;;;;;8.47;5.10;;;32.40;53.10;;;;;;5034966;28;20833;-51
2022/08/29 12:36:24;;;;;;;4.73;3.03;;;32.50;52.40;;;;;;5040161;28;20816;-50
2022/08/29 12:39:12;;;;;;;4.03;3.60;;;32.70;53.30;;;;;;5039767;28;20580;-51
2022/08/29 12:42:06;;;;;;;4.50;4.10;;;32.80;52.40;;;;;;5038342;28;20914;-51
2022/08/29 12:44:36;;;;;;;13.43;4.23;;;33.00;52.00;;;;;;5038192;28;20493;-48
2022/08/29 12:47:07;;;;;;;4.63;3.30;;;32.90;51.80;;;;;;5036438;28;20463;-51
2022/08/29 12:49:40;;;;;;;6.30;4.27;;;33.00;53.00;;;;;;5000979;28;20455;-51
2022/08/29 12:52:19;;;;;;;6.00;4.07;;;31.90;51.30;;;;;;5022678;28;20487;-52
2022/08/29 12:54:46;;;;;;;10.37;4.20;;;32.00;53.30;;;;;;5036994;28;20908;-52
2022/08/29 12:57:20;;;;;;;4.80;4.30;;;32.20;53.50;;;;;;5038858;28;20487;-52
2022/08/29 12:59:49;;;;;;;3.50;3.20;;;32.50;53.00;;;;;;5039527;28;21153;-51
2022/08/29 13:02:27;;;;;;;6.40;4.60;;;32.70;53.50;;;;;;5042543;28;21047;-52
2022/08/29 13:04:55;;;;;;;6.00;3.67;;;33.20;52.70;;;;;;5033801;28;20492;-50
2022/08/29 13:07:22;;;;;;;3.80;3.50;;;33.30;51.60;;;;;;5012532;28;20457;-52